createdAt,value
2022-11-22T00:00:46.973Z,100.00
2022-11-22T00:03:14.893Z,100.00
2022-11-22T00:05:42.861Z,100.00
2022-11-22T00:08:10.807Z,100.00
2022-11-22T00:10:40.168Z,100.00
2022-11-22T00:13:08.153Z,100.00
2022-11-22T00:15:36.141Z,100.00
2022-11-22T00:18:04.099Z,100.00
2022-11-22T00:20:32.098Z,100.00
2022-11-22T00:23:00.013Z,100.00
2022-11-22T00:25:28.030Z,100.00
2022-11-22T00:27:57.443Z,100.00
2022-11-22T00:30:25.429Z,100.00
2022-11-22T00:32:53.363Z,100.00
2022-11-22T00:35:21.352Z,100.00
2022-11-22T00:37:49.312Z,100.00
2022-11-22T00:40:17.391Z,100.00
2022-11-22T00:42:45.361Z,100.00
2022-11-22T00:45:14.754Z,100.00
2022-11-22T00:47:42.734Z,100.00
2022-11-22T00:50:10.999Z,100.00
2022-11-22T00:52:38.972Z,100.00
2022-11-22T00:55:07.915Z,100.00
2022-11-22T00:57:35.903Z,100.00
2022-11-22T01:00:03.933Z,100.00
2022-11-22T01:02:33.261Z,100.00
2022-11-22T01:05:01.223Z,100.00
2022-11-22T01:07:29.189Z,100.00
2022-11-22T01:09:57.161Z,100.00
2022-11-22T01:12:25.095Z,100.00
2022-11-22T01:14:53.097Z,100.00
2022-11-22T01:17:21.216Z,100.00
2022-11-22T01:19:50.563Z,100.00
2022-11-22T01:22:18.520Z,100.00
2022-11-22T01:24:46.486Z,100.00
2022-11-22T01:27:14.441Z,100.00
2022-11-22T01:29:42.354Z,100.00
2022-11-22T01:32:10.299Z,100.00
2022-11-22T01:34:38.329Z,100.00
2022-11-22T01:37:07.636Z,100.00
2022-11-22T01:39:35.590Z,100.00
2022-11-22T01:42:03.579Z,100.00
2022-11-22T01:44:32.380Z,100.00
2022-11-22T01:47:01.389Z,100.00
2022-11-22T01:49:31.367Z,100.00
2022-11-22T01:52:00.969Z,100.00
2022-11-22T01:54:32.180Z,100.00
2022-11-22T01:57:01.137Z,100.00
2022-11-22T01:59:30.527Z,100.00
2022-11-22T02:01:58.771Z,100.00
2022-11-22T02:04:26.759Z,100.00
2022-11-22T02:06:57.403Z,100.00
2022-11-22T02:09:25.357Z,100.00
2022-11-22T02:11:55.560Z,100.00
2022-11-22T02:14:25.517Z,100.00
2022-11-22T02:16:53.454Z,100.00
2022-11-22T02:19:24.876Z,100.00
2022-11-22T02:21:55.840Z,100.00
2022-11-22T02:24:25.568Z,100.00
2022-11-22T02:26:54.946Z,100.00
2022-11-22T02:29:22.869Z,100.00
2022-11-22T02:31:50.919Z,100.00
2022-11-22T02:34:18.859Z,100.00
2022-11-22T02:36:48.163Z,100.00
2022-11-22T02:39:17.426Z,100.00
2022-11-22T02:41:45.469Z,100.00
2022-11-22T02:44:14.793Z,100.00
2022-11-22T02:46:49.863Z,100.00
2022-11-22T02:49:19.473Z,100.00
2022-11-22T02:51:47.627Z,100.00
2022-11-22T02:54:15.539Z,100.00
2022-11-22T02:56:43.498Z,100.00
2022-11-22T02:59:11.634Z,100.00
2022-11-22T03:01:40.991Z,100.00
2022-11-22T03:04:08.943Z,100.00
2022-11-22T03:06:36.869Z,100.00
2022-11-22T03:09:04.859Z,100.00
2022-11-22T03:11:32.854Z,100.00
2022-11-22T03:14:00.759Z,100.00
2022-11-22T03:16:30.584Z,100.00
2022-11-22T03:18:59.942Z,100.00
2022-11-22T03:21:27.968Z,100.00
2022-11-22T03:23:56.104Z,100.00
2022-11-22T03:26:24.655Z,100.00
2022-11-22T03:28:52.671Z,100.00
2022-11-22T03:31:20.788Z,100.00
2022-11-22T03:33:48.743Z,100.00
2022-11-22T03:36:18.093Z,100.00
2022-11-22T03:38:46.085Z,100.00
2022-11-22T03:41:14.117Z,100.00
2022-11-22T03:43:42.066Z,100.00
2022-11-22T03:46:15.457Z,100.00
2022-11-22T03:48:43.596Z,100.00
2022-11-22T03:51:11.593Z,100.00
2022-11-22T03:53:40.921Z,100.00
2022-11-22T03:56:08.849Z,100.00
2022-11-22T03:58:36.893Z,100.00
2022-11-22T04:01:04.919Z,100.00
2022-11-22T04:03:32.941Z,100.00
2022-11-22T04:06:00.869Z,100.00
2022-11-22T04:08:28.866Z,100.00
2022-11-22T04:10:58.327Z,100.00
2022-11-22T04:13:46.327Z,100.00
2022-11-22T04:16:13.289Z,100.00
2022-11-22T04:18:41.206Z,100.00
2022-11-22T04:21:26.670Z,100.00
2022-11-22T04:24:08.467Z,100.00
2022-11-22T04:26:37.792Z,100.00
2022-11-22T04:29:10.122Z,100.00
2022-11-22T04:31:55.802Z,100.00
2022-11-22T04:34:23.853Z,100.00
2022-11-22T04:36:51.882Z,100.00
2022-11-22T04:39:19.865Z,100.00
2022-11-22T04:42:09.198Z,100.00
2022-11-22T04:44:42.014Z,100.00
2022-11-22T04:47:10.073Z,100.00
2022-11-22T04:49:38.069Z,100.00
2022-11-22T04:52:24.021Z,100.00
2022-11-22T04:54:52.011Z,100.00
2022-11-22T04:57:21.325Z,100.00
2022-11-22T04:59:49.279Z,100.00
2022-11-22T05:02:17.248Z,100.00
2022-11-22T05:04:50.504Z,100.00
2022-11-22T05:07:18.903Z,100.00
2022-11-22T05:09:46.895Z,100.00
2022-11-22T05:12:14.925Z,100.00
2022-11-22T05:14:44.289Z,100.00
2022-11-22T05:17:13.677Z,100.00
2022-11-22T05:19:44.891Z,100.00
2022-11-22T05:22:16.997Z,100.00
2022-11-22T05:24:43.937Z,100.00
2022-11-22T05:27:11.914Z,100.00
2022-11-22T05:29:39.919Z,100.00
2022-11-22T05:32:09.303Z,100.00
2022-11-22T05:34:37.348Z,100.00
2022-11-22T05:37:05.292Z,100.00
2022-11-22T05:39:33.349Z,100.00
2022-11-22T05:42:01.278Z,100.00
2022-11-22T05:44:29.237Z,100.00
2022-11-22T05:46:57.240Z,100.00
2022-11-22T05:49:26.613Z,100.00
2022-11-22T05:51:54.610Z,100.00
2022-11-22T05:54:22.613Z,100.00
2022-11-22T05:56:50.572Z,100.00
2022-11-22T05:59:18.669Z,100.00
2022-11-22T06:01:46.635Z,100.00
2022-11-22T06:04:14.678Z,100.00
2022-11-22T06:06:44.058Z,100.00
2022-11-22T06:09:12.034Z,100.00
2022-11-22T06:11:39.996Z,100.00
2022-11-22T06:14:09.779Z,100.00
2022-11-22T06:16:37.780Z,100.00
2022-11-22T06:19:05.735Z,100.00
2022-11-22T06:21:33.720Z,100.00
2022-11-22T06:24:03.073Z,100.00
2022-11-22T06:26:34.753Z,100.00
2022-11-22T06:29:06.952Z,100.00
2022-11-22T06:31:34.957Z,100.00
2022-11-22T06:34:03.045Z,100.00
2022-11-22T06:36:31.805Z,100.00
2022-11-22T06:38:59.799Z,100.00
2022-11-22T06:41:29.795Z,100.00
2022-11-22T06:43:57.761Z,100.00
2022-11-22T06:46:26.617Z,100.00
2022-11-22T06:48:54.611Z,100.00
2022-11-22T06:51:23.683Z,100.00
2022-11-22T06:53:51.828Z,100.00
2022-11-22T06:56:20.486Z,100.00
2022-11-22T06:58:50.313Z,100.00
2022-11-22T07:01:19.290Z,100.00
2022-11-22T07:03:47.535Z,100.00
2022-11-22T07:06:16.073Z,100.00
2022-11-22T07:08:44.348Z,100.00
2022-11-22T07:11:13.193Z,100.00
2022-11-22T07:13:41.189Z,100.00
2022-11-22T07:16:11.701Z,100.00
2022-11-22T07:18:39.663Z,100.00
2022-11-22T07:21:12.946Z,100.00
2022-11-22T07:23:41.696Z,100.00
2022-11-22T07:26:09.715Z,100.00
2022-11-22T07:28:37.853Z,100.00
2022-11-22T07:31:06.922Z,100.00
2022-11-22T07:33:36.277Z,100.00
2022-11-22T07:36:07.582Z,100.00
2022-11-22T07:38:35.647Z,100.00
2022-11-22T07:41:03.622Z,100.00
2022-11-22T07:43:31.650Z,100.00
2022-11-22T07:46:00.223Z,100.00
2022-11-22T07:48:28.170Z,100.00
2022-11-22T07:50:57.584Z,100.00
2022-11-22T07:53:26.052Z,100.00
2022-11-22T07:55:53.991Z,100.00
2022-11-22T07:58:21.962Z,100.00
2022-11-22T08:00:50.035Z,100.00
2022-11-22T08:03:19.161Z,96.84
2022-11-22T08:05:48.615Z,94.32
2022-11-22T08:08:17.947Z,90.45
2022-11-22T08:10:46.483Z,87.25
2022-11-22T08:13:14.446Z,88.16
2022-11-22T08:15:42.641Z,86.22
2022-11-22T08:18:10.629Z,84.32
2022-11-22T08:20:38.604Z,84.45
2022-11-22T08:23:06.609Z,82.49
2022-11-22T08:25:35.957Z,77.01
2022-11-22T08:28:03.869Z,75.24
2022-11-22T08:30:31.910Z,78.73
2022-11-22T08:32:59.879Z,73.92
2022-11-22T08:35:27.852Z,72.57
2022-11-22T08:37:58.941Z,73.17
2022-11-22T08:40:26.933Z,69.46
2022-11-22T08:42:57.138Z,72.46
2022-11-22T08:45:25.158Z,71.54
2022-11-22T08:47:53.107Z,68.61
2022-11-22T08:50:21.182Z,68.00
2022-11-22T08:52:49.155Z,69.75
2022-11-22T08:55:17.164Z,66.99
2022-11-22T08:57:45.101Z,63.54
2022-11-22T09:00:15.836Z,60.63
2022-11-22T09:02:43.805Z,60.17
2022-11-22T09:05:11.879Z,55.66
2022-11-22T09:10:28.199Z,51.09
2022-11-22T09:12:56.163Z,52.07
2022-11-22T09:15:25.667Z,53.42
2022-11-22T09:17:53.650Z,52.02
2022-11-22T09:20:21.644Z,50.31
2022-11-22T09:22:49.681Z,50.46
2022-11-22T09:25:17.854Z,47.39
2022-11-22T09:27:45.787Z,46.95
2022-11-22T09:30:14.096Z,44.53
2022-11-22T09:32:44.462Z,44.97
2022-11-22T09:35:12.432Z,45.07
2022-11-22T09:37:40.379Z,43.01
2022-11-22T09:40:09.971Z,43.24
2022-11-22T09:42:48.382Z,44.99
2022-11-22T09:45:48.114Z,44.95
2022-11-22T09:48:24.813Z,45.30
2022-11-22T09:50:56.108Z,47.80
2022-11-22T09:53:26.124Z,48.97
2022-11-22T09:55:54.650Z,46.13
2022-11-22T09:58:27.976Z,46.03
2022-11-22T10:00:57.023Z,48.39
2022-11-22T10:03:28.497Z,48.62
2022-11-22T10:05:57.436Z,49.59
2022-11-22T10:08:33.437Z,48.69
2022-11-22T10:11:01.419Z,49.77
2022-11-22T10:13:32.257Z,52.18
2022-11-22T10:16:03.361Z,51.60
2022-11-22T10:18:38.592Z,52.11
2022-11-22T10:21:08.143Z,51.69
2022-11-22T10:23:36.064Z,50.80
2022-11-22T10:26:05.269Z,51.11
2022-11-22T10:28:35.642Z,48.74
2022-11-22T10:31:07.195Z,47.15
2022-11-22T10:33:44.037Z,46.30
2022-11-22T10:36:25.144Z,45.37
2022-11-22T10:39:09.689Z,46.86
2022-11-22T10:41:44.839Z,48.12
2022-11-22T10:44:19.158Z,49.85
2022-11-22T10:46:56.391Z,47.26
2022-11-22T10:49:30.281Z,47.76
2022-11-22T10:52:00.274Z,47.59
2022-11-22T10:54:29.679Z,46.53
2022-11-22T10:57:00.292Z,45.13
2022-11-22T10:59:37.550Z,44.94
2022-11-22T11:02:17.194Z,45.39
2022-11-22T11:04:46.563Z,45.40
2022-11-22T11:07:16.393Z,45.44
2022-11-22T11:10:10.143Z,46.17
2022-11-22T11:12:40.034Z,46.34
2022-11-22T11:15:15.888Z,47.26
2022-11-22T11:17:43.922Z,48.65
2022-11-22T11:20:17.677Z,46.45
2022-11-22T11:23:13.221Z,47.72
2022-11-22T11:25:34.789Z,47.69
2022-11-22T11:28:06.709Z,48.36
2022-11-22T11:30:41.930Z,47.48
2022-11-22T11:33:21.544Z,49.06
2022-11-22T11:35:51.475Z,49.75
2022-11-22T11:38:33.776Z,51.51
2022-11-22T11:41:17.690Z,50.97
2022-11-22T11:43:45.812Z,53.38
2022-11-22T11:46:17.338Z,52.66
2022-11-22T11:48:45.332Z,54.35
2022-11-22T11:51:17.839Z,54.39
2022-11-22T11:53:52.361Z,55.73
2022-11-22T11:56:31.250Z,55.35
2022-11-22T11:58:59.608Z,55.68
2022-11-22T12:01:27.582Z,56.97
2022-11-22T12:03:56.620Z,56.65
2022-11-22T12:06:28.939Z,55.47
2022-11-22T12:08:57.211Z,56.29
2022-11-22T12:11:27.996Z,55.75
2022-11-22T12:14:19.068Z,56.63
2022-11-22T12:16:46.072Z,55.67
2022-11-22T12:19:24.395Z,55.42
2022-11-22T12:21:57.359Z,56.66
2022-11-22T12:24:48.396Z,56.04
2022-11-22T12:27:14.911Z,57.18
2022-11-22T12:29:43.805Z,56.54
2022-11-22T12:32:15.398Z,55.55
2022-11-22T12:34:47.468Z,55.73
2022-11-22T12:37:18.538Z,58.38
2022-11-22T12:39:48.565Z,57.00
2022-11-22T12:45:11.842Z,57.04
2022-11-22T12:47:41.117Z,59.22
2022-11-22T12:48:22.536Z,56.42
2022-11-22T12:50:11.239Z,59.41
2022-11-22T12:52:41.918Z,56.89
2022-11-22T12:55:13.830Z,57.84
2022-11-22T12:57:44.511Z,56.05
2022-11-22T13:00:15.701Z,54.52
2022-11-22T13:02:46.458Z,55.61
2022-11-22T13:05:16.717Z,55.52
2022-11-22T13:07:51.619Z,55.52
2022-11-22T13:10:25.615Z,57.54
2022-11-22T13:12:53.674Z,56.62
2022-11-22T13:15:27.149Z,57.09
2022-11-22T13:17:55.190Z,58.20
2022-11-22T13:20:24.913Z,58.60
2022-11-22T13:22:59.475Z,61.37
2022-11-22T13:25:36.751Z,59.91
2022-11-22T13:28:07.681Z,60.14
2022-11-22T13:30:35.577Z,62.16
2022-11-22T13:33:03.491Z,59.44
2022-11-22T13:35:32.481Z,59.36
2022-11-22T13:38:03.777Z,61.13
2022-11-22T13:40:32.966Z,60.62
2022-11-22T13:43:42.945Z,62.26
2022-11-22T13:46:52.665Z,62.65
2022-11-22T13:49:36.893Z,61.46
2022-11-22T13:52:28.239Z,62.01
2022-11-22T13:55:02.530Z,62.56
2022-11-22T13:57:35.160Z,61.20
2022-11-22T14:00:48.589Z,60.96
2022-11-22T14:03:34.454Z,61.86
2022-11-22T14:06:02.785Z,62.17
2022-11-22T14:08:34.712Z,62.73
2022-11-22T14:11:22.947Z,65.24
2022-11-22T14:13:53.407Z,66.31
2022-11-22T14:16:36.500Z,66.44
2022-11-22T14:19:10.028Z,66.81
2022-11-22T14:21:56.784Z,66.55
2022-11-22T14:24:31.875Z,64.77
2022-11-22T14:27:06.023Z,65.55
2022-11-22T14:29:54.294Z,65.37
2022-11-22T14:32:22.910Z,66.28
2022-11-22T14:35:16.368Z,66.56
2022-11-22T14:37:47.065Z,66.42
2022-11-22T14:40:28.973Z,67.54
2022-11-22T14:43:00.104Z,69.14
2022-11-22T14:45:30.874Z,65.73
2022-11-22T14:48:04.407Z,65.96
2022-11-22T14:50:34.339Z,67.89
2022-11-22T14:53:07.983Z,66.36
2022-11-22T14:55:36.007Z,66.11
2022-11-22T14:58:07.765Z,70.20
2022-11-22T15:00:43.007Z,74.82
2022-11-22T15:03:42.926Z,78.84
2022-11-22T15:09:16.275Z,76.02
2022-11-22T15:09:45.140Z,75.97
2022-11-22T15:12:28.828Z,72.71
2022-11-22T15:57:34.207Z,78.91
2022-11-22T16:00:02.144Z,80.39
2022-11-22T16:02:32.017Z,80.37
2022-11-22T16:06:08.767Z,81.37
2022-11-22T16:07:50.726Z,83.95
2022-11-22T16:10:20.705Z,84.87
2022-11-22T16:12:48.768Z,84.12
2022-11-22T16:15:28.342Z,83.87
2022-11-22T16:18:01.005Z,84.01
2022-11-22T16:20:32.750Z,82.82
2022-11-22T16:23:21.756Z,84.27
2022-11-22T16:25:50.779Z,84.76
2022-11-22T16:28:32.924Z,87.45
2022-11-22T16:31:02.134Z,96.31
2022-11-22T16:33:30.373Z,100.00
2022-11-22T16:36:00.336Z,100.00
2022-11-22T16:38:28.434Z,100.00
2022-11-22T16:40:58.130Z,100.00
2022-11-22T16:43:26.855Z,100.00
2022-11-22T16:45:54.857Z,100.00
2022-11-22T16:48:31.962Z,100.00
2022-11-22T16:51:04.061Z,100.00
2022-11-22T16:53:38.183Z,100.00
2022-11-22T16:56:06.614Z,100.00
2022-11-22T16:58:34.605Z,100.00
2022-11-22T17:01:02.599Z,100.00
2022-11-22T17:03:32.002Z,100.00
2022-11-22T17:06:01.426Z,100.00
2022-11-22T17:08:29.367Z,100.00
2022-11-22T17:10:57.412Z,100.00
2022-11-22T17:13:26.694Z,100.00
2022-11-22T17:15:54.969Z,100.00
2022-11-22T17:18:23.090Z,100.00
2022-11-22T17:20:51.099Z,100.00
2022-11-22T17:23:22.741Z,100.00
2022-11-22T17:25:50.813Z,100.00
2022-11-22T17:28:18.764Z,100.00
2022-11-22T17:30:46.716Z,100.00
2022-11-22T17:33:14.717Z,100.00
2022-11-22T17:35:42.710Z,98.40
2022-11-22T17:38:11.416Z,98.19
2022-11-22T17:40:40.787Z,98.30
2022-11-22T17:43:08.771Z,97.59
2022-11-22T17:45:42.523Z,97.55
2022-11-22T17:48:10.518Z,97.94
2022-11-22T17:50:38.471Z,100.00
2022-11-22T17:53:06.631Z,100.00
2022-11-22T17:55:48.349Z,100.00
2022-11-22T17:58:23.868Z,100.00
2022-11-22T18:00:52.043Z,100.00
2022-11-22T18:03:20.017Z,100.00
2022-11-22T18:05:48.260Z,100.00
2022-11-22T18:08:16.244Z,100.00
2022-11-22T18:10:44.194Z,100.00
2022-11-22T18:13:27.424Z,100.00
2022-11-22T18:16:02.938Z,100.00
2022-11-22T18:21:19.932Z,100.00
2022-11-22T18:23:47.850Z,100.00
2022-11-22T18:31:53.769Z,100.00
2022-11-22T18:34:22.215Z,100.00
2022-11-22T18:37:05.481Z,100.00
2022-11-22T18:39:35.441Z,100.00
2022-11-22T18:42:03.878Z,100.00
2022-11-22T18:44:31.846Z,100.00
2022-11-22T18:47:01.250Z,100.00
2022-11-22T18:49:29.514Z,100.00
2022-11-22T18:51:57.900Z,100.00
2022-11-22T18:54:25.888Z,100.00
2022-11-22T18:56:53.884Z,100.00
2022-11-22T18:59:22.315Z,100.00
2022-11-22T19:01:50.265Z,100.00
2022-11-22T19:04:19.663Z,100.00
2022-11-22T19:06:47.598Z,100.00
2022-11-22T19:09:15.592Z,100.00
2022-11-22T19:11:43.603Z,100.00
2022-11-22T19:14:11.571Z,100.00
2022-11-22T19:16:39.547Z,100.00
2022-11-22T19:19:08.425Z,100.00
2022-11-22T19:21:37.836Z,100.00
2022-11-22T19:24:06.723Z,100.00
2022-11-22T19:26:34.721Z,100.00
2022-11-22T19:29:04.726Z,100.00
2022-11-22T19:31:32.782Z,100.00
2022-11-22T19:34:00.734Z,100.00
2022-11-22T19:36:33.192Z,100.00
2022-11-22T19:39:03.839Z,100.00
2022-11-22T19:41:32.077Z,100.00
2022-11-22T19:44:00.094Z,100.00
2022-11-22T19:46:28.136Z,100.00
2022-11-22T19:48:57.043Z,100.00
2022-11-22T19:51:25.151Z,100.00
2022-11-22T19:53:54.478Z,100.00
2022-11-22T19:56:26.692Z,100.00
2022-11-22T19:58:55.237Z,100.00
2022-11-22T20:01:24.524Z,100.00
2022-11-22T20:03:53.029Z,100.00
2022-11-22T20:06:21.036Z,100.00
2022-11-22T20:08:48.935Z,100.00
2022-11-22T20:11:17.818Z,100.00
2022-11-22T20:13:47.809Z,100.00
2022-11-22T20:16:16.452Z,100.00
2022-11-22T20:18:44.363Z,100.00
2022-11-22T20:21:12.739Z,100.00
2022-11-22T20:23:42.450Z,100.00
2022-11-22T20:26:11.646Z,100.00
2022-11-22T20:28:39.885Z,100.00
2022-11-22T20:31:10.407Z,100.00
2022-11-22T20:33:39.147Z,100.00
2022-11-22T20:36:08.229Z,100.00
2022-11-22T20:38:36.769Z,100.00
2022-11-22T20:41:05.966Z,100.00
2022-11-22T20:43:34.235Z,100.00
2022-11-22T20:46:02.545Z,100.00
2022-11-22T20:48:31.949Z,100.00
2022-11-22T20:50:59.935Z,100.00
2022-11-22T20:53:28.023Z,100.00
2022-11-22T20:55:56.056Z,100.00
2022-11-22T20:58:24.835Z,100.00
2022-11-22T21:00:52.845Z,100.00
2022-11-22T21:03:20.971Z,100.00
2022-11-22T21:05:53.423Z,100.00
2022-11-22T21:08:21.468Z,100.00
2022-11-22T21:10:49.638Z,100.00
2022-11-22T21:13:17.694Z,100.00
2022-11-22T21:15:45.706Z,100.00
2022-11-22T21:18:29.147Z,100.00
2022-11-22T21:21:04.360Z,100.00
2022-11-22T21:23:32.331Z,100.00
2022-11-22T21:26:00.263Z,100.00
2022-11-22T21:28:28.267Z,100.00
2022-11-22T21:30:57.670Z,100.00
2022-11-22T21:33:25.942Z,100.00
2022-11-22T21:35:54.017Z,100.00
2022-11-22T21:38:28.226Z,100.00
2022-11-22T21:41:17.226Z,100.00
2022-11-22T21:43:50.527Z,100.00
2022-11-22T21:46:20.413Z,100.00
2022-11-22T21:48:49.454Z,100.00
2022-11-22T21:51:17.445Z,100.00
2022-11-22T21:53:46.792Z,100.00
2022-11-22T21:56:14.789Z,100.00
2022-11-22T21:58:42.733Z,100.00
2022-11-22T22:01:14.085Z,100.00
2022-11-22T22:03:42.408Z,100.00
2022-11-22T22:06:10.343Z,100.00
2022-11-22T22:08:38.390Z,100.00
2022-11-22T22:11:07.839Z,100.00
2022-11-22T22:13:36.044Z,100.00
2022-11-22T22:16:06.733Z,100.00
2022-11-22T22:18:35.722Z,100.00
2022-11-22T22:21:03.938Z,100.00
2022-11-22T22:23:31.925Z,100.00
2022-11-22T22:26:01.085Z,100.00
2022-11-22T22:28:31.180Z,100.00
2022-11-22T22:31:06.518Z,100.00
2022-11-22T22:33:34.671Z,100.00
2022-11-22T22:36:02.642Z,100.00
2022-11-22T22:38:30.681Z,100.00
2022-11-22T22:40:59.163Z,100.00
2022-11-22T22:43:29.793Z,100.00
2022-11-22T22:46:06.433Z,100.00
2022-11-22T22:48:34.853Z,100.00
2022-11-22T22:51:06.979Z,100.00
2022-11-22T22:53:34.981Z,100.00
2022-11-22T22:56:03.125Z,100.00
2022-11-22T22:58:31.112Z,100.00
2022-11-22T23:01:07.036Z,100.00
2022-11-22T23:03:35.097Z,100.00
2022-11-22T23:06:06.387Z,100.00
2022-11-22T23:08:34.423Z,100.00
2022-11-22T23:11:06.598Z,100.00
2022-11-22T23:13:35.577Z,100.00
2022-11-22T23:16:03.669Z,100.00
2022-11-22T23:18:35.633Z,100.00
2022-11-22T23:21:04.002Z,100.00
2022-11-22T23:23:32.064Z,100.00
2022-11-22T23:26:02.865Z,100.00
2022-11-22T23:28:30.909Z,100.00
2022-11-22T23:31:05.276Z,100.00
2022-11-22T23:33:34.610Z,100.00
2022-11-22T23:36:04.083Z,100.00
2022-11-22T23:38:32.009Z,100.00
2022-11-22T23:40:59.970Z,100.00
2022-11-22T23:43:28.075Z,100.00
2022-11-22T23:45:56.087Z,100.00
2022-11-22T23:48:24.036Z,100.00
2022-11-22T23:50:53.315Z,100.00
2022-11-22T23:53:21.363Z,100.00
2022-11-22T23:55:49.333Z,100.00
2022-11-22T23:58:17.302Z,100.00
